Time;durP1;ratioP1;P1;durP2;ratioP2;P2;SDS_P1;SDS_P2;PMS_P1;PMS_P2;Temp;Humidity;BMP_temperature;BMP_pressure;BME280_temperature;BME280_humidity;BME280_pressure;Samples;Min_cycle;Max_cycle;Signal;HPM_P1;HPM_P2
2023/09/30 00:01:09;;;;;;;15.70;4.35;;;;;;;15.58;79.11;99578.44;5048858;28;20449;-81
2023/09/30 00:03:35;;;;;;;18.08;4.72;;;;;;;15.38;79.27;99574.81;5039182;28;20033;-81
2023/09/30 00:06:00;;;;;;;13.20;5.10;;;;;;;15.17;79.91;99584.66;5024810;28;20035;-80
2023/09/30 00:08:25;;;;;;;10.98;4.95;;;;;;;15.39;79.11;99592.59;5043577;28;20053;-80
2023/09/30 00:10:53;;;;;;;11.73;5.00;;;;;;;15.17;79.50;99555.09;5047880;28;20068;-80
2023/09/30 00:13:18;;;;;;;12.43;5.13;;;;;;;15.34;78.92;99584.47;5049981;28;20051;-81
2023/09/30 00:15:43;;;;;;;13.60;5.18;;;;;;;15.47;78.23;99592.94;5032313;28;20033;-81
2023/09/30 00:18:09;;;;;;;15.60;5.18;;;;;;;15.25;78.61;99586.84;5032104;28;20419;-80
2023/09/30 00:20:34;;;;;;;24.55;6.30;;;;;;;15.29;79.07;99592.53;5039153;28;20041;-81
2023/09/30 00:23:00;;;;;;;19.02;6.30;;;;;;;15.00;79.07;99574.06;5025053;28;20055;-81
2023/09/30 00:25:25;;;;;;;11.63;5.22;;;;;;;15.06;78.52;99585.66;5027322;28;20040;-81
2023/09/30 00:27:50;;;;;;;15.25;5.60;;;;;;;14.84;78.72;99603.78;5029528;28;20021;-80
2023/09/30 00:30:16;;;;;;;9.77;4.65;;;;;;;14.92;79.58;99606.81;5045521;28;20025;-81
2023/09/30 00:32:42;;;;;;;11.25;5.53;;;;;;;14.93;78.79;99591.50;5047045;28;20132;-80
2023/09/30 00:35:11;;;;;;;11.65;5.13;;;;;;;14.81;79.82;99601.59;5030926;28;20040;-81
2023/09/30 00:37:41;;;;;;;10.80;5.57;;;;;;;14.86;78.82;99604.34;5045901;28;20051;-81
2023/09/30 00:40:07;;;;;;;18.65;6.07;;;;;;;15.10;78.18;99615.53;5030359;28;20644;-81
2023/09/30 00:42:32;;;;;;;11.55;5.28;;;;;;;14.84;79.12;99626.13;5043774;28;20033;-81
2023/09/30 00:44:58;;;;;;;17.23;5.60;;;;;;;14.99;78.16;99623.53;5050005;28;20093;-81
2023/09/30 00:47:24;;;;;;;12.20;5.43;;;;;;;14.68;78.84;99607.41;5030495;28;20025;-81
2023/09/30 00:49:50;;;;;;;13.95;6.38;;;;;;;14.97;77.75;99620.28;5047818;28;20107;-81
2023/09/30 00:52:17;;;;;;;19.73;6.35;;;;;;;14.94;77.26;99623.50;5050843;28;20025;-81
2023/09/30 00:54:43;;;;;;;17.02;5.82;;;;;;;15.07;77.30;99627.59;5032108;28;20469;-81
2023/09/30 00:57:11;;;;;;;13.82;6.03;;;;;;;14.86;76.98;99598.97;5045712;28;20025;-81
2023/09/30 00:59:37;;;;;;;15.65;5.85;;;;;;;14.85;77.61;99613.50;5032040;28;20049;-81
2023/09/30 01:02:05;;;;;;;18.45;5.97;;;;;;;15.00;77.03;99611.69;5049036;28;20392;-81
2023/09/30 01:04:30;;;;;;;16.13;6.82;;;;;;;14.87;77.11;99624.78;5051621;28;20040;-80
2023/09/30 01:06:57;;;;;;;15.00;7.63;;;;;;;14.86;77.53;99623.16;5027201;28;20020;-80
2023/09/30 01:09:23;;;;;;;14.18;5.30;;;;;;;14.85;77.43;99613.50;5015606;28;20021;-80
2023/09/30 01:11:49;;;;;;;14.20;6.13;;;;;;;14.67;78.04;99621.94;5033042;28;20033;-81
2023/09/30 01:14:25;;;;;;;13.27;6.15;;;;;;;14.70;77.72;99613.38;5049268;28;20400;-81
2023/09/30 01:16:51;;;;;;;11.68;6.53;;;;;;;14.72;77.54;99609.34;5032080;28;20044;-80
2023/09/30 01:19:16;;;;;;;16.23;6.15;;;;;;;14.65;77.99;99624.06;5047386;28;20033;-81
2023/09/30 01:21:41;;;;;;;14.52;6.38;;;;;;;14.59;77.49;99623.19;5017143;28;20071;-81
2023/09/30 01:24:07;;;;;;;13.93;7.43;;;;;;;14.66;77.77;99634.56;5020441;28;20033;-81
2023/09/30 01:26:33;;;;;;;13.38;5.80;;;;;;;14.33;78.63;99621.34;5031531;28;20025;-80
2023/09/30 01:28:58;;;;;;;17.17;6.47;;;;;;;14.09;79.68;99611.91;5029101;28;20075;-81
2023/09/30 01:31:23;;;;;;;15.43;7.18;;;;;;;14.37;78.95;99633.22;5049674;28;20591;-80
2023/09/30 01:33:49;;;;;;;19.15;6.78;;;;;;;14.25;78.75;99654.00;5048535;28;20025;-81
2023/09/30 01:36:17;;;;;;;16.58;7.03;;;;;;;14.06;79.23;99628.56;5030198;28;20029;-81
2023/09/30 01:38:42;;;;;;;19.10;5.95;;;;;;;14.17;78.80;99641.84;5031498;28;20022;-81
2023/09/30 01:41:08;;;;;;;23.75;7.88;;;;;;;13.87;79.31;99665.63;5020150;28;20043;-81
2023/09/30 01:43:35;;;;;;;17.55;7.10;;;;;;;14.07;79.50;99641.72;5037601;28;20524;-81
2023/09/30 01:46:01;;;;;;;27.05;6.95;;;;;;;14.10;79.24;99665.38;5018809;28;20029;-80
2023/09/30 01:48:26;;;;;;;17.40;7.15;;;;;;;14.09;80.13;99660.25;5035367;28;20596;-80
2023/09/30 01:50:51;;;;;;;14.70;7.28;;;;;;;13.95;79.88;99641.06;5032390;28;20029;-81
2023/09/30 01:53:17;;;;;;;27.25;7.63;;;;;;;14.26;79.26;99658.31;5050308;28;20075;-81
2023/09/30 01:55:44;;;;;;;22.10;6.65;;;;;;;14.22;79.53;99635.69;5017555;28;20512;-81
2023/09/30 01:58:11;;;;;;;26.75;9.48;;;;;;;14.25;78.66;99629.81;5018179;28;20393;-81
2023/09/30 02:00:36;;;;;;;25.15;7.57;;;;;;;14.36;78.64;99658.44;5015921;28;20522;-81
2023/09/30 02:03:02;;;;;;;18.98;6.65;;;;;;;14.08;79.36;99643.34;5040209;28;20021;-81
2023/09/30 02:05:27;;;;;;;20.50;6.53;;;;;;;14.19;79.14;99663.06;5047960;28;20041;-81
2023/09/30 02:07:53;;;;;;;16.50;6.75;;;;;;;14.25;79.03;99652.13;5049619;28;20179;-81
2023/09/30 02:10:18;;;;;;;15.98;6.53;;;;;;;14.21;79.05;99666.31;5029956;28;20060;-81
2023/09/30 02:12:45;;;;;;;16.27;6.65;;;;;;;14.21;79.08;99655.56;5029110;28;20036;-81
2023/09/30 02:15:11;;;;;;;21.75;7.15;;;;;;;14.31;78.79;99661.06;5049501;28;20169;-81
2023/09/30 02:17:40;;;;;;;25.80;6.38;;;;;;;14.11;79.49;99658.13;5042943;28;20021;-81
2023/09/30 02:20:12;;;;;;;15.32;6.25;;;;;;;14.27;79.18;99679.53;5049729;28;20103;-81
2023/09/30 02:22:38;;;;;;;17.83;6.10;;;;;;;14.13;78.98;99659.50;5048010;28;20979;-81
2023/09/30 02:25:07;;;;;;;17.92;7.53;;;;;;;14.28;79.03;99678.44;5046180;28;20550;-81
2023/09/30 02:27:32;;;;;;;17.85;7.18;;;;;;;14.15;79.04;99653.91;5017798;28;20033;-81
2023/09/30 02:29:57;;;;;;;26.40;7.18;;;;;;;14.11;78.72;99669.66;5034464;28;20040;-81
2023/09/30 02:32:24;;;;;;;19.55;6.85;;;;;;;13.78;80.52;99669.78;5016363;28;20144;-81
2023/09/30 02:34:50;;;;;;;14.18;6.95;;;;;;;13.92;80.61;99663.00;5034124;28;20021;-81
2023/09/30 02:37:16;;;;;;;20.58;6.18;;;;;;;14.20;79.26;99680.78;5031741;28;20029;-81
2023/09/30 02:39:43;;;;;;;15.02;6.18;;;;;;;14.23;79.29;99664.19;5047965;28;20027;-81
2023/09/30 02:42:08;;;;;;;16.58;5.93;;;;;;;14.15;79.15;99664.63;5049331;28;20119;-81
2023/09/30 02:44:34;;;;;;;21.00;6.93;;;;;;;14.20;79.30;99662.81;5043300;28;20100;-81
2023/09/30 02:46:59;;;;;;;20.50;7.38;;;;;;;14.05;79.33;99668.00;5033762;28;20032;-81
2023/09/30 02:49:24;;;;;;;17.10;6.45;;;;;;;13.99;79.34;99655.59;5047791;28;20052;-80
2023/09/30 02:51:50;;;;;;;22.73;6.30;;;;;;;14.18;78.99;99659.56;5046326;28;20053;-81
2023/09/30 02:54:16;;;;;;;19.15;5.85;;;;;;;13.87;79.46;99659.47;5032147;28;20029;-81
2023/09/30 02:56:42;;;;;;;24.15;7.57;;;;;;;14.02;79.74;99665.81;5047340;28;20095;-81
2023/09/30 02:59:07;;;;;;;21.73;5.93;;;;;;;13.85;79.89;99645.47;5050135;28;20028;-81
2023/09/30 03:01:33;;;;;;;19.67;6.75;;;;;;;14.00;79.74;99669.81;5042559;28;20053;-81
2023/09/30 03:03:58;;;;;;;17.70;6.30;;;;;;;14.07;79.53;99654.31;5030569;28;20029;-80
2023/09/30 03:06:24;;;;;;;17.30;6.35;;;;;;;13.95;79.26;99650.97;5011398;28;20091;-81
2023/09/30 03:08:49;;;;;;;20.58;5.97;;;;;;;14.03;79.44;99637.91;5049778;28;20059;-81
2023/09/30 03:11:14;;;;;;;11.15;5.55;;;;;;;14.15;78.73;99665.41;5049894;28;20063;-81
2023/09/30 03:13:42;;;;;;;21.55;6.05;;;;;;;13.99;78.92;99657.44;5046574;28;20027;-80
2023/09/30 03:16:07;;;;;;;17.88;5.35;;;;;;;14.04;78.69;99677.09;5043559;28;20056;-80
2023/09/30 03:18:33;;;;;;;17.95;6.72;;;;;;;13.99;79.07;99678.94;5030539;28;20025;-81
2023/09/30 03:21:00;;;;;;;29.15;6.28;;;;;;;14.01;78.83;99690.22;5032924;28;20060;-81
2023/09/30 03:23:30;;;;;;;21.92;6.85;;;;;;;14.03;79.07;99688.91;5048642;28;20028;-80
2023/09/30 03:25:59;;;;;;;18.83;5.90;;;;;;;13.91;79.36;99677.47;5048050;28;20029;-80
2023/09/30 03:28:26;;;;;;;18.60;5.97;;;;;;;13.89;78.86;99660.03;5031044;28;20437;-81
2023/09/30 03:30:52;;;;;;;16.67;5.95;;;;;;;13.93;79.26;99690.66;5031922;28;20075;-81
2023/09/30 03:33:17;;;;;;;14.07;5.72;;;;;;;14.04;79.09;99692.41;5042163;28;20127;-81
2023/09/30 03:35:44;;;;;;;17.02;5.63;;;;;;;13.96;79.01;99682.09;5045558;28;20029;-81
2023/09/30 03:38:10;;;;;;;17.25;6.10;;;;;;;14.04;78.70;99693.22;5031620;28;20036;-80
2023/09/30 03:40:38;;;;;;;16.88;6.20;;;;;;;13.84;79.05;99671.50;5046624;28;20032;-81
2023/09/30 03:43:05;;;;;;;13.40;5.18;;;;;;;13.87;78.77;99675.56;5046295;28;20025;-81
2023/09/30 03:45:32;;;;;;;11.52;5.00;;;;;;;13.90;79.00;99677.75;5043649;28;20021;-81
2023/09/30 03:47:58;;;;;;;13.48;4.68;;;;;;;13.84;78.97;99679.56;5028405;28;20436;-80
2023/09/30 03:50:24;;;;;;;15.85;4.97;;;;;;;13.99;78.42;99670.88;5029474;28;20060;-80
2023/09/30 03:52:50;;;;;;;10.45;5.07;;;;;;;13.98;78.56;99693.41;5029409;28;20068;-81
2023/09/30 03:55:17;;;;;;;18.63;6.03;;;;;;;14.03;78.18;99712.25;5048789;28;20068;-81
2023/09/30 03:57:45;;;;;;;21.00;6.20;;;;;;;13.88;79.01;99704.00;5043489;28;20043;-81
2023/09/30 04:00:16;;;;;;;12.57;4.63;;;;;;;13.70;78.67;99691.69;5044424;28;20017;-81
2023/09/30 04:02:42;;;;;;;24.25;6.43;;;;;;;13.77;79.07;99684.28;5016090;28;20041;-80
2023/09/30 04:05:11;;;;;;;16.70;4.82;;;;;;;13.65;78.97;99680.09;5030289;28;20204;-81
2023/09/30 04:07:36;;;;;;;20.38;6.00;;;;;;;13.76;79.16;99682.66;5046746;28;20025;-80
2023/09/30 04:10:03;;;;;;;20.77;5.63;;;;;;;13.79;79.13;99676.81;5046267;28;20107;-81
2023/09/30 04:12:29;;;;;;;11.52;5.03;;;;;;;13.95;78.55;99684.00;5040817;28;20052;-81
2023/09/30 04:14:54;;;;;;;22.02;5.50;;;;;;;13.67;78.79;99673.44;5028683;28;20029;-81
2023/09/30 04:17:22;;;;;;;16.23;5.53;;;;;;;13.75;79.03;99689.09;5008876;28;20684;-81
2023/09/30 04:19:50;;;;;;;19.92;6.40;;;;;;;13.67;79.07;99686.03;5044122;28;20030;-81
2023/09/30 04:22:16;;;;;;;14.60;5.47;;;;;;;13.73;78.88;99691.22;5047763;28;20170;-80
2023/09/30 04:24:42;;;;;;;14.43;5.25;;;;;;;13.70;79.13;99694.38;5012662;28;20025;-81
2023/09/30 04:27:07;;;;;;;16.13;4.72;;;;;;;13.74;78.67;99700.09;5029318;28;20046;-80
2023/09/30 04:29:34;;;;;;;16.15;5.43;;;;;;;13.69;78.68;99691.97;5029623;28;20041;-81
2023/09/30 04:31:59;;;;;;;13.57;5.25;;;;;;;13.49;78.71;99679.06;5048703;28;20131;-81
2023/09/30 04:34:27;;;;;;;23.40;6.10;;;;;;;13.55;78.52;99694.16;5039761;28;20472;-81
2023/09/30 04:36:53;;;;;;;14.00;5.05;;;;;;;13.55;79.35;99688.81;5047854;28;20037;-81
2023/09/30 04:39:18;;;;;;;10.10;5.53;;;;;;;13.56;79.02;99709.22;5030913;28;20059;-81
2023/09/30 04:41:44;;;;;;;17.20;4.50;;;;;;;13.50;78.94;99691.41;5043699;28;20037;-81
2023/09/30 04:44:09;;;;;;;17.42;5.30;;;;;;;13.63;78.61;99695.63;5007815;28;20599;-81
2023/09/30 04:46:36;;;;;;;16.20;5.00;;;;;;;13.64;78.90;99713.34;5038797;28;20058;-81
2023/09/30 04:49:02;;;;;;;14.30;5.20;;;;;;;13.47;78.88;99708.84;5045341;28;20060;-81
2023/09/30 04:51:27;;;;;;;12.82;4.97;;;;;;;13.52;79.02;99698.16;5028165;28;20179;-80
2023/09/30 04:53:54;;;;;;;16.75;5.63;;;;;;;13.43;78.86;99701.53;5029700;28;20032;-80
2023/09/30 04:56:20;;;;;;;17.27;5.15;;;;;;;13.54;79.38;99714.81;5007077;28;20801;-81
2023/09/30 04:58:46;;;;;;;13.27;5.68;;;;;;;13.55;78.42;99718.31;5010800;28;20022;-80
2023/09/30 05:01:12;;;;;;;16.75;4.90;;;;;;;13.41;79.40;99717.84;5028420;28;20052;-80
2023/09/30 05:03:38;;;;;;;9.68;4.95;;;;;;;13.49;79.22;99720.13;5047528;28;20408;-81
2023/09/30 05:06:03;;;;;;;16.50;5.20;;;;;;;13.57;78.68;99723.41;5035371;28;20151;-81
2023/09/30 05:08:29;;;;;;;18.75;6.15;;;;;;;13.42;79.08;99711.44;5048459;28;20040;-81
2023/09/30 05:10:55;;;;;;;14.75;5.63;;;;;;;13.22;79.45;99710.28;5038842;28;20060;-81
2023/09/30 05:13:23;;;;;;;16.05;6.13;;;;;;;13.49;79.10;99717.44;5047472;28;20064;-81
2023/09/30 05:15:49;;;;;;;12.57;4.93;;;;;;;13.36;79.20;99723.16;5030815;28;20041;-81
2023/09/30 05:18:14;;;;;;;19.50;6.63;;;;;;;13.41;79.01;99715.16;5044701;28;20108;-81
2023/09/30 05:20:40;;;;;;;16.23;5.82;;;;;;;13.34;78.82;99716.41;5030822;28;20119;-81
2023/09/30 05:23:07;;;;;;;16.55;6.05;;;;;;;13.34;79.61;99724.44;5032801;28;20461;-81
2023/09/30 05:25:32;;;;;;;18.92;6.60;;;;;;;13.09;79.95;99734.75;5048447;28;20040;-81
2023/09/30 05:27:57;;;;;;;19.05;6.80;;;;;;;13.18;80.49;99744.00;5043190;28;20045;-81
2023/09/30 05:30:23;;;;;;;16.58;5.50;;;;;;;13.12;80.10;99728.91;5046537;28;20029;-81
2023/09/30 05:32:48;;;;;;;23.05;7.22;;;;;;;12.37;82.32;99722.94;5028391;28;20071;-81
2023/09/30 05:35:16;;;;;;;18.80;6.30;;;;;;;12.36;83.20;99746.22;5031831;28;20036;-81
2023/09/30 05:37:43;;;;;;;18.27;7.25;;;;;;;12.50;82.96;99766.34;5029317;28;20526;-81
2023/09/30 05:40:20;;;;;;;27.55;7.80;;;;;;;12.18;83.18;99750.94;5048204;28;20020;-81
2023/09/30 05:42:45;;;;;;;28.20;6.88;;;;;;;12.35;83.89;99755.31;5050197;28;20543;-81
2023/09/30 05:45:12;;;;;;;21.33;7.47;;;;;;;11.68;85.46;99746.16;5045729;28;20053;-81
2023/09/30 05:47:38;;;;;;;24.15;6.63;;;;;;;11.48;86.48;99734.97;5034040;28;20048;-81
2023/09/30 05:50:05;;;;;;;29.40;10.05;;;;;;;11.21;88.33;99765.81;5043670;28;20385;-80
2023/09/30 05:52:30;;;;;;;27.67;8.25;;;;;;;10.70;91.02;99753.06;5042034;28;20025;-82
2023/09/30 05:54:55;;;;;;;29.35;8.20;;;;;;;11.50;89.36;99772.97;5027059;28;20033;-81
2023/09/30 05:57:23;;;;;;;22.52;7.00;;;;;;;12.60;83.83;99771.88;5014051;28;20056;-81
2023/09/30 05:59:49;;;;;;;25.63;8.23;;;;;;;12.86;81.73;99767.00;5017089;28;20071;-80
2023/09/30 06:02:15;;;;;;;24.10;7.30;;;;;;;12.57;82.53;99788.44;5030742;28;20025;-81
2023/09/30 06:04:40;;;;;;;22.65;7.28;;;;;;;13.00;81.37;99777.19;5016942;28;20033;-81
2023/09/30 06:07:06;;;;;;;16.90;6.53;;;;;;;12.93;81.94;99775.72;5038645;28;20072;-81
2023/09/30 06:09:31;;;;;;;20.48;6.97;;;;;;;12.77;81.76;99783.47;5023832;28;20111;-81
2023/09/30 06:11:56;;;;;;;20.08;6.70;;;;;;;12.72;83.40;99782.56;5034834;28;20059;-81
2023/09/30 06:14:22;;;;;;;21.52;7.07;;;;;;;13.03;81.19;99749.09;5052444;28;20032;-81
2023/09/30 06:16:47;;;;;;;15.13;6.55;;;;;;;13.36;80.65;99763.38;5030155;28;20079;-81
2023/09/30 06:19:13;;;;;;;15.77;5.93;;;;;;;13.60;79.69;99760.50;5030189;28;20497;-81
2023/09/30 06:21:39;;;;;;;25.08;6.22;;;;;;;13.51;79.97;99762.78;5031175;28;20037;-81
2023/09/30 06:24:05;;;;;;;15.65;6.18;;;;;;;13.62;79.52;99759.19;5028050;28;20396;-81
2023/09/30 06:26:31;;;;;;;20.08;5.97;;;;;;;13.64;79.60;99773.19;5029074;28;20029;-81
2023/09/30 06:28:56;;;;;;;16.90;5.68;;;;;;;13.26;80.63;99760.50;5032173;28;20835;-81
2023/09/30 06:31:22;;;;;;;18.20;8.55;;;;;;;13.63;79.53;99781.47;5050834;28;20021;-81
2023/09/30 06:33:48;;;;;;;13.55;5.10;;;;;;;13.70;78.68;99774.88;5045232;28;20032;-81
2023/09/30 06:36:14;;;;;;;12.48;6.20;;;;;;;13.35;79.32;99775.13;5045739;28;20032;-81
2023/09/30 06:38:41;;;;;;;17.60;5.22;;;;;;;13.75;78.89;99787.56;5045759;28;20025;-81
2023/09/30 06:41:07;;;;;;;20.15;6.90;;;;;;;13.57;79.05;99772.53;5046542;28;20032;-81
2023/09/30 06:43:34;;;;;;;17.20;6.10;;;;;;;13.57;79.15;99763.66;5049478;28;20021;-81
2023/09/30 06:46:07;;;;;;;17.48;6.10;;;;;;;13.43;79.39;99766.66;5025346;28;20388;-81
2023/09/30 06:48:32;;;;;;;14.57;6.72;;;;;;;13.71;79.16;99787.25;5029889;28;20095;-82
2023/09/30 06:50:59;;;;;;;14.02;6.20;;;;;;;13.45;79.24;99787.91;5029947;28;20106;-81
2023/09/30 06:53:24;;;;;;;14.65;5.88;;;;;;;12.79;83.09;99812.69;5051807;28;20033;-81
2023/09/30 06:55:53;;;;;;;16.05;4.88;;;;;;;12.99;82.16;99820.31;5034927;28;20033;-81
2023/09/30 06:58:21;;;;;;;15.38;7.28;;;;;;;12.19;85.84;99828.31;5042901;28;20119;-81
2023/09/30 07:00:55;;;;;;;21.63;7.20;;;;;;;12.67;83.22;99838.69;5045703;28;20036;-81
2023/09/30 07:03:21;;;;;;;14.18;4.60;;;;;;;12.84;83.97;99836.91;5025349;28;20037;-80
2023/09/30 07:05:49;;;;;;;13.25;5.28;;;;;;;13.00;82.15;99829.97;5049729;28;20087;-81
2023/09/30 07:08:16;;;;;;;23.77;6.95;;;;;;;12.68;83.02;99834.97;5050107;28;20023;-81
2023/09/30 07:10:42;;;;;;;25.00;7.38;;;;;;;12.39;84.69;99841.31;5043834;28;20511;-81
2023/09/30 07:13:07;;;;;;;16.85;5.47;;;;;;;12.83;83.98;99837.97;5047961;28;20039;-81
2023/09/30 07:15:33;;;;;;;11.88;4.68;;;;;;;12.67;83.31;99842.19;5047495;28;20029;-80
2023/09/30 07:17:59;;;;;;;21.63;7.45;;;;;;;12.50;82.83;99830.59;5049692;28;20039;-81
2023/09/30 07:20:24;;;;;;;19.77;6.70;;;;;;;12.10;85.39;99839.63;5028891;28;20045;-80
2023/09/30 07:22:50;;;;;;;14.45;5.75;;;;;;;11.85;86.54;99826.50;5045870;28;20037;-80
2023/09/30 07:25:17;;;;;;;11.27;5.20;;;;;;;12.80;84.19;99835.75;5030705;28;20120;-82
2023/09/30 07:27:45;;;;;;;10.38;4.70;;;;;;;12.92;82.86;99855.28;5046921;28;20044;-80
2023/09/30 07:30:14;;;;;;;11.40;5.28;;;;;;;13.09;82.45;99861.53;5030457;28;20025;-80
2023/09/30 07:32:41;;;;;;;12.68;5.10;;;;;;;13.36;81.30;99841.13;5037072;28;20699;-80
2023/09/30 07:35:08;;;;;;;12.18;5.57;;;;;;;13.28;81.81;99857.59;5049344;28;20118;-80
2023/09/30 07:37:33;;;;;;;15.60;6.00;;;;;;;13.30;81.52;99854.69;5014341;28;20091;-80
2023/09/30 07:39:59;;;;;;;16.55;5.53;;;;;;;13.07;82.51;99860.16;5044727;28;20025;-80
2023/09/30 07:42:25;;;;;;;17.10;7.03;;;;;;;12.26;87.48;99858.47;5040956;28;20142;-79
2023/09/30 07:44:51;;;;;;;13.38;5.25;;;;;;;12.62;87.09;99868.88;5048322;28;20071;-80
2023/09/30 07:47:17;;;;;;;14.38;5.32;;;;;;;13.06;83.70;99851.28;5048321;28;20486;-80
2023/09/30 07:49:42;;;;;;;12.43;5.10;;;;;;;13.28;82.88;99864.84;5031917;28;20078;-80
2023/09/30 07:52:08;;;;;;;13.88;5.18;;;;;;;13.16;82.89;99850.66;5047460;28;20020;-81
2023/09/30 07:54:34;;;;;;;13.63;5.00;;;;;;;13.31;82.68;99865.16;5028011;28;20020;-80
2023/09/30 07:56:59;;;;;;;21.88;6.40;;;;;;;13.38;83.27;99865.00;5015515;28;20036;-80
2023/09/30 07:59:25;;;;;;;19.35;7.18;;;;;;;13.14;85.05;99874.22;5027192;28;20028;-80
2023/09/30 08:01:52;;;;;;;23.98;7.85;;;;;;;12.87;86.90;99865.06;5046023;28;20043;-80
2023/09/30 08:04:18;;;;;;;16.05;6.47;;;;;;;12.70;89.63;99883.78;5046819;28;20078;-80
2023/09/30 08:06:43;;;;;;;11.30;4.43;;;;;;;12.96;86.41;99867.16;5045646;28;20440;-80
2023/09/30 08:09:12;;;;;;;19.02;7.15;;;;;;;13.17;86.91;99855.78;5028112;28;20110;-79
2023/09/30 08:11:38;;;;;;;14.00;5.65;;;;;;;13.25;87.54;99879.53;5027163;28;20095;-79
2023/09/30 08:14:06;;;;;;;16.58;8.10;;;;;;;12.77;91.45;99812.94;5042906;28;20052;-80
2023/09/30 08:16:33;;;;;;;21.58;7.05;;;;;;;13.11;91.06;99864.78;5047906;28;20039;-80
2023/09/30 08:18:58;;;;;;;16.42;6.55;;;;;;;13.20;90.89;99863.34;5005490;28;20034;-80
2023/09/30 08:21:25;;;;;;;18.10;5.03;;;;;;;13.42;88.58;99866.97;5049587;28;20049;-82
2023/09/30 08:23:50;;;;;;;27.00;8.20;;;;;;;13.62;87.60;99860.31;5042680;28;20032;-82
2023/09/30 08:26:16;;;;;;;11.27;4.30;;;;;;;14.07;83.41;99863.72;5046864;28;20388;-82
2023/09/30 08:28:41;;;;;;;23.23;7.55;;;;;;;13.90;86.60;99860.22;5029878;28;20041;-81
2023/09/30 08:31:09;;;;;;;22.88;7.03;;;;;;;13.66;87.27;99856.09;5027509;28;20033;-82
2023/09/30 08:33:35;;;;;;;11.85;6.05;;;;;;;13.80;86.50;99860.09;5030290;28;20084;-82
2023/09/30 08:36:08;;;;;;;21.90;6.93;;;;;;;13.67;87.72;99858.56;5042101;28;20035;-82
2023/09/30 08:38:41;;;;;;;17.70;5.63;;;;;;;14.08;86.69;99873.41;5043409;28;20053;-82
2023/09/30 08:41:09;;;;;;;28.48;6.60;;;;;;;14.15;86.34;99876.75;5045528;28;20024;-82
2023/09/30 08:43:39;;;;;;;11.82;4.43;;;;;;;14.59;82.15;99880.34;5044590;28;20428;-82
2023/09/30 08:46:06;;;;;;;11.93;4.78;;;;;;;14.75;81.38;99893.72;5046411;28;20033;-82
2023/09/30 08:48:34;;;;;;;8.75;4.00;;;;;;;14.50;82.07;99869.22;5040841;28;20033;-82
2023/09/30 08:51:01;;;;;;;11.60;4.43;;;;;;;14.95;80.86;99899.34;5043647;28;20040;-81
2023/09/30 08:53:28;;;;;;;10.50;4.18;;;;;;;14.84;81.29;99884.16;5029161;28;20033;-80
2023/09/30 08:55:55;;;;;;;20.48;5.68;;;;;;;14.68;82.49;99900.31;5030802;28;20037;-82
2023/09/30 08:58:27;;;;;;;20.67;5.40;;;;;;;14.30;83.89;99901.16;5048894;28;20035;-82
2023/09/30 09:00:52;;;;;;;24.55;6.75;;;;;;;14.12;84.36;99887.97;5046469;28;20040;-83
2023/09/30 09:03:21;;;;;;;16.30;5.63;;;;;;;14.32;84.03;99877.56;5030361;28;20036;-82
2023/09/30 09:05:54;;;;;;;13.82;4.97;;;;;;;14.73;83.61;99892.31;5044562;28;20029;-82
2023/09/30 09:08:23;;;;;;;23.90;6.35;;;;;;;14.50;85.03;99895.25;5047034;28;20079;-83
2023/09/30 09:11:00;;;;;;;14.15;4.70;;;;;;;15.14;81.58;99899.00;5030699;28;20527;-81
2023/09/30 09:13:26;;;;;;;16.50;4.90;;;;;;;15.21;80.60;99878.09;5047792;28;20041;-82
2023/09/30 09:16:08;;;;;;;16.98;5.90;;;;;;;15.15;80.82;99869.19;5046383;28;20045;-82
2023/09/30 09:18:35;;;;;;;13.32;4.45;;;;;;;15.33;80.17;99889.53;5029960;28;20041;-83
2023/09/30 09:21:09;;;;;;;15.88;4.55;;;;;;;15.45;79.45;99892.91;5034780;28;20037;-83
2023/09/30 09:23:42;;;;;;;12.73;4.45;;;;;;;15.36;79.20;99875.56;5030854;28;20083;-82
2023/09/30 09:26:10;;;;;;;8.82;4.18;;;;;;;15.43;80.20;99898.53;5051291;28;20111;-83
2023/09/30 09:28:36;;;;;;;10.15;3.55;;;;;;;15.48;79.18;99895.91;5049896;28;20491;-83
2023/09/30 09:31:02;;;;;;;12.50;4.05;;;;;;;15.47;79.96;99890.75;5041574;28;20384;-82
2023/09/30 09:33:36;;;;;;;12.88;3.75;;;;;;;15.53;78.55;99890.56;5037732;28;20021;-83
2023/09/30 09:36:02;;;;;;;7.03;3.47;;;;;;;15.37;78.86;99887.97;5041644;28;20036;-82
2023/09/30 09:38:43;;;;;;;11.18;3.92;;;;;;;15.37;78.92;99904.91;5009677;28;20041;-83
2023/09/30 09:41:08;;;;;;;13.75;4.20;;;;;;;15.27;78.79;99901.28;5040035;28;20037;-82
2023/09/30 09:43:36;;;;;;;11.00;3.80;;;;;;;15.54;78.69;99911.03;5008575;28;20116;-83
2023/09/30 09:46:07;;;;;;;11.65;3.72;;;;;;;15.60;78.75;99915.41;5044292;28;20108;-82
2023/09/30 09:48:36;;;;;;;9.68;3.70;;;;;;;15.52;79.05;99898.91;5042691;28;20024;-82
2023/09/30 09:51:03;;;;;;;10.38;4.35;;;;;;;15.40;78.86;99890.13;5041632;28;20029;-82
2023/09/30 09:53:36;;;;;;;10.45;3.47;;;;;;;15.36;78.92;99899.78;5027653;28;20485;-83
2023/09/30 09:56:03;;;;;;;10.60;3.58;;;;;;;15.10;78.15;99892.50;5042121;28;20078;-82
2023/09/30 09:58:33;;;;;;;14.70;4.18;;;;;;;14.99;78.60;99887.00;5047904;28;20034;-82
2023/09/30 10:01:00;;;;;;;14.32;3.75;;;;;;;15.09;77.70;99886.31;5008803;28;20043;-82
2023/09/30 10:03:26;;;;;;;12.60;3.70;;;;;;;15.33;78.81;99884.16;5046013;28;20086;-83
2023/09/30 10:05:52;;;;;;;11.50;3.75;;;;;;;15.48;78.32;99887.03;5031070;28;20037;-83
2023/09/30 10:08:21;;;;;;;12.45;3.92;;;;;;;15.56;78.15;99883.84;5058808;28;20132;-83
2023/09/30 10:10:47;;;;;;;11.23;3.78;;;;;;;15.54;77.33;99878.75;5027233;28;21305;-82
2023/09/30 10:13:50;;;;;;;9.07;3.97;;;;;;;15.68;76.48;99890.69;5049514;28;20020;-82
2023/09/30 10:16:37;;;;;;;9.85;3.67;;;;;;;15.80;75.65;99892.41;5042477;28;20555;-82
2023/09/30 10:19:08;;;;;;;12.52;4.22;;;;;;;15.86;75.37;99891.41;5040578;28;20112;-82
2023/09/30 10:21:34;;;;;;;5.75;2.78;;;;;;;15.91;75.09;99888.72;5047739;28;20541;-82
2023/09/30 10:24:24;;;;;;;16.30;3.42;;;;;;;15.98;74.15;99882.06;5042499;28;20041;-83
2023/09/30 10:27:34;;;;;;;10.00;3.10;;;;;;;15.97;74.54;99883.13;5040525;28;20028;-82
2023/09/30 10:29:59;;;;;;;10.02;3.25;;;;;;;16.00;74.53;99879.94;5043093;28;20044;-82
2023/09/30 10:32:50;;;;;;;7.68;3.22;;;;;;;16.10;74.12;99885.38;5050800;28;20028;-83
2023/09/30 10:35:16;;;;;;;6.57;2.60;;;;;;;16.10;73.37;99880.00;5047980;28;20021;-83
2023/09/30 10:37:43;;;;;;;8.93;2.92;;;;;;;16.18;72.87;99865.25;5042261;28;20078;-82
2023/09/30 10:40:09;;;;;;;9.55;3.22;;;;;;;16.22;72.99;99871.72;5047554;28;20074;-82
2023/09/30 10:42:49;;;;;;;7.80;2.97;;;;;;;16.29;72.97;99869.63;5048546;28;20032;-82
2023/09/30 10:45:43;;;;;;;7.22;2.38;;;;;;;16.40;72.93;99872.09;5044950;28;20065;-83
2023/09/30 10:48:31;;;;;;;6.00;3.17;;;;;;;16.45;72.90;99869.44;5052054;28;20542;-83
2023/09/30 10:51:23;;;;;;;7.35;2.97;;;;;;;16.52;72.56;99873.81;5042834;28;20025;-83
2023/09/30 10:53:56;;;;;;;11.85;3.38;;;;;;;16.37;71.75;99863.72;5050404;28;20536;-82
2023/09/30 10:56:22;;;;;;;13.90;3.45;;;;;;;16.43;72.21;99857.28;5038703;28;20170;-82
2023/09/30 10:58:52;;;;;;;7.85;2.80;;;;;;;16.44;71.17;99838.19;5049634;28;20119;-83
2023/09/30 11:01:22;;;;;;;7.63;2.45;;;;;;;16.48;71.20;99863.53;5043143;28;20032;-82
2023/09/30 11:03:56;;;;;;;7.32;3.05;;;;;;;16.58;71.20;99860.09;5047157;28;20078;-83
2023/09/30 11:06:22;;;;;;;11.88;2.30;;;;;;;16.68;70.90;99879.03;5033138;28;20055;-83
2023/09/30 11:08:55;;;;;;;11.15;3.10;;;;;;;16.78;70.53;99894.41;5012005;28;20025;-83
2023/09/30 11:11:43;;;;;;;14.57;3.33;;;;;;;16.88;69.58;99889.09;5044661;28;20119;-82
2023/09/30 11:14:19;;;;;;;8.70;3.40;;;;;;;16.84;70.34;99864.50;5039749;28;21004;-83
2023/09/30 11:16:44;;;;;;;8.40;2.53;;;;;;;16.94;69.75;99866.44;5043211;28;20710;-82
2023/09/30 11:19:11;;;;;;;7.43;2.88;;;;;;;16.85;70.08;99870.72;5045422;28;20071;-82
2023/09/30 11:21:38;;;;;;;9.18;2.35;;;;;;;16.88;70.27;99865.63;5049854;28;20039;-82
2023/09/30 11:24:05;;;;;;;12.57;3.00;;;;;;;17.21;69.08;99873.25;5047454;28;20021;-82
2023/09/30 11:26:32;;;;;;;6.20;2.42;;;;;;;17.01;69.45;99856.22;5049291;28;20063;-82
2023/09/30 11:29:06;;;;;;;13.85;3.20;;;;;;;16.82;69.68;99850.47;5012463;28;20030;-82